| time (UTC) | temp F | wind direction | speed MPH | gust MPH | rain 1hr in | rain 24hr in | rain mn in | humidity % | barometer mb |
| 20260503023049 | 62 | 0 | 0.0 | 1.0 | 0.00 | 0.00 | 0.00 | 35 | 1015.0 |
| 20260503021537 | 64 | 0 | 0.0 | 0.0 | 0.00 | 0.00 | 0.00 | 34 | 1015.0 |
| 20260503020038 | 65 | 0 | 0.0 | 1.0 | 0.00 | 0.00 | 0.00 | 33 | 1015.0 |
| 20260503014544 | 65 | 0 | 0.0 | 2.0 | 0.00 | 0.00 | 0.00 | 33 | 1015.0 |
| 20260503013042 | 66 | 120 | 1.0 | 4.0 | 0.00 | 0.00 | 0.00 | 32 | 1015.1 |
| 20260503011554 | 67 | 172 | 0.0 | 3.0 | 0.00 | 0.00 | 0.00 | 32 | 1015.0 |
| 20260503010047 | 67 | 0 | 1.0 | 7.0 | 0.00 | 0.00 | 0.00 | 32 | 1015.2 |
| 20260503004537 | 65 | 0 | 4.0 | 9.0 | 0.00 | 0.00 | 0.00 | 33 | 1015.4 |
| 20260503003040 | 65 | 0 | 1.0 | 12.0 | 0.00 | 0.00 | 0.00 | 33 | 1015.5 |
| 20260503001537 | 66 | 192 | 0.0 | 3.0 | 0.00 | 0.00 | 0.00 | 32 | 1015.6 |
| 20260503000059 | 67 | 327 | 1.0 | 5.0 | 0.00 | 0.00 | 0.00 | 33 | 1015.8 |
| 20260502234544 | 67 | 101 | 0.0 | 4.0 | 0.00 | 0.00 | 0.00 | 32 | 1015.8 |
| 20260502233039 | 67 | 75 | 1.0 | 10.0 | 0.00 | 0.00 | 0.00 | 31 | 1015.9 |
| 20260502231546 | 67 | 130 | 1.0 | 8.0 | 0.00 | 0.00 | 0.00 | 33 | 1016.2 |
| 20260502230044 | 66 | 188 | 2.0 | 7.0 | 0.00 | 0.00 | 0.00 | 34 | 1016.3 |
| 20260502224537 | 65 | 0 | 1.0 | 5.0 | 0.00 | 0.00 | 0.00 | 35 | 1016.5 |
| 20260502223045 | 64 | 88 | 2.0 | 8.0 | 0.00 | 0.00 | 0.00 | 36 | 1016.7 |
| 20260502221539 | 65 | 0 | 1.0 | 4.0 | 0.00 | 0.00 | 0.00 | 36 | 1017.0 |
| 20260502220040 | 66 | 74 | 1.0 | 6.0 | 0.00 | 0.00 | 0.00 | 34 | 1017.1 |
| 20260502214538 | 66 | 312 | 3.0 | 13.0 | 0.00 | 0.00 | 0.00 | 34 | 1017.2 |
| 20260502213038 | 64 | 88 | 1.0 | 11.0 | 0.00 | 0.00 | 0.00 | 36 | 1017.4 |
| 20260502211551 | 64 | 221 | 3.0 | 12.0 | 0.00 | 0.00 | 0.00 | 35 | 1017.6 |
| 20260502210040 | 65 | 311 | 3.0 | 9.0 | 0.00 | 0.00 | 0.00 | 36 | 1017.8 |
| 20260502204538 | 65 | 33 | 4.0 | 10.0 | 0.00 | 0.00 | 0.00 | 35 | 1018.0 |
| 20260502203037 | 64 | 283 | 2.0 | 11.0 | 0.00 | 0.00 | 0.00 | 37 | 1018.1 |
| 20260502201537 | 63 | 17 | 3.0 | 9.0 | 0.00 | 0.00 | 0.00 | 39 | 1018.2 |
| 20260502200044 | 63 | 31 | 3.0 | 12.0 | 0.00 | 0.00 | 0.00 | 39 | 1018.5 |
| 20260502194536 | 63 | 22 | 4.0 | 13.0 | 0.00 | 0.00 | 0.00 | 38 | 1018.6 |
| 20260502193040 | 63 | 42 | 2.0 | 11.0 | 0.00 | 0.00 | 0.00 | 38 | 1018.6 |
| 20260502191538 | 64 | 60 | 1.0 | 12.0 | 0.00 | 0.00 | 0.00 | 37 | 1018.7 |
| 20260502190037 | 64 | 0 | 2.0 | 12.0 | 0.00 | 0.00 | 0.00 | 36 | 1018.9 |
| 20260502184538 | 66 | 0 | 3.0 | 14.0 | 0.00 | 0.00 | 0.00 | 34 | 1019.0 |
| 20260502183037 | 64 | 34 | 1.0 | 14.0 | 0.00 | 0.00 | 0.00 | 36 | 1019.1 |
| 20260502181536 | 64 | 49 | 4.0 | 12.0 | 0.00 | 0.00 | 0.00 | 37 | 1019.4 |
| 20260502163040 | 62 | 11 | 2.0 | 15.0 | 0.00 | 0.00 | 0.00 | 40 | 1019.5 |
| 20260502161539 | 62 | 63 | 3.0 | 14.0 | 0.00 | 0.00 | 0.00 | 39 | 1019.6 |
| 20260502151548 | 59 | 0 | 5.0 | 14.0 | 0.00 | 0.00 | 0.00 | 41 | 1019.6 |
| 20260502123054 | 48 | 40 | 3.0 | 8.0 | 0.00 | 0.00 | 0.00 | 55 | 1018.2 |
| 20260502121541 | 48 | 36 | 2.0 | 8.0 | 0.00 | 0.00 | 0.00 | 54 | 1017.9 |
| 20260502114537 | 47 | 39 | 3.0 | 6.0 | 0.00 | 0.00 | 0.00 | 54 | 1017.7 |
| 20260502113045 | 46 | 17 | 0.0 | 3.0 | 0.00 | 0.00 | 0.00 | 54 | 1017.5 |
| 20260502111547 | 47 | 0 | 0.0 | 3.0 | 0.00 | 0.00 | 0.00 | 50 | 1017.3 |
| 20260502110043 | 48 | 0 | 0.0 | 3.0 | 0.00 | 0.00 | 0.00 | 48 | 1017.0 |
| 20260502104541 | 49 | 335 | 4.0 | 10.0 | 0.00 | 0.00 | 0.00 | 46 | 1016.7 |
| 20260502103037 | 49 | 286 | 4.0 | 8.0 | 0.00 | 0.00 | 0.00 | 45 | 1016.5 |
| 20260502101538 | 50 | 0 | 1.0 | 11.0 | 0.00 | 0.00 | 0.00 | 44 | 1016.4 |
| 20260502070041 | 53 | 0 | 0.0 | 3.0 | 0.00 | 0.00 | 0.00 | 34 | 1015.4 |
| 20260502064538 | 61 | 269 | 5.0 | 15.0 | 0.00 | 0.00 | 0.00 | 29 | 1015.1 |
| 20260502063055 | 58 | 232 | 5.0 | 15.0 | 0.00 | 0.00 | 0.00 | 31 | 1015.1 |
| 20260502061542 | 54 | 0 | 0.0 | 1.0 | 0.00 | 0.00 | 0.00 | 33 | 1015.0 |
| 20260502060038 | 54 | 310 | 0.0 | 3.0 | 0.00 | 0.00 | 0.00 | 33 | 1015.0 |
| 20260502054536 | 56 | 310 | 4.0 | 16.0 | 0.00 | 0.00 | 0.00 | 31 | 1014.8 |
| 20260502053050 | 56 | 309 | 10.0 | 16.0 | 0.00 | 0.00 | 0.00 | 32 | 1014.6 |
| 20260502051545 | 56 | 328 | 10.0 | 16.0 | 0.00 | 0.00 | 0.00 | 31 | 1014.7 |
| 20260502050042 | 55 | 311 | 14.0 | 17.0 | 0.00 | 0.00 | 0.00 | 30 | 1014.7 |
| 20260502044539 | 58 | 308 | 11.0 | 16.0 | 0.00 | 0.00 | 0.00 | 28 | 1014.6 |
| 20260502043040 | 59 | 309 | 12.0 | 16.0 | 0.00 | 0.00 | 0.00 | 28 | 1014.6 |
| 20260502041539 | 58 | 302 | 12.0 | 18.0 | 0.00 | 0.00 | 0.00 | 27 | 1014.6 |
| 20260502040039 | 56 | 291 | 8.0 | 12.0 | 0.00 | 0.00 | 0.00 | 26 | 1014.6 |
| 20260502034538 | 59 | 284 | 10.0 | 13.0 | 0.00 | 0.00 | 0.00 | 23 | 1014.5 |
| 20260502033044 | 60 | 272 | 8.0 | 14.0 | 0.00 | 0.00 | 0.00 | 22 | 1014.4 |
| 20260502031541 | 61 | 300 | 9.0 | 13.0 | 0.00 | 0.00 | 0.00 | 21 | 1014.3 |
| 20260502030047 | 61 | 298 | 7.0 | 10.0 | 0.00 | 0.00 | 0.00 | 21 | 1014.2 |
| 20260502024539 | 60 | 297 | 6.0 | 10.0 | 0.00 | 0.00 | 0.00 | 21 | 1014.1 |